Time;durP1;ratioP1;P1;durP2;ratioP2;P2;SDS_P1;SDS_P2;PMS_P1;PMS_P2;Temp;Humidity;BMP_temperature;BMP_pressure;BME280_temperature;BME280_humidity;BME280_pressure;Samples;Min_cycle;Max_cycle;Signal;HPM_P1;HPM_P2
2021/01/10 05:01:53;;;;;;;1999.90;999.90;;;2.80;99.90;;;;;;5293807;23;20238;-78
2021/01/10 05:04:26;;;;;;;1999.90;999.90;;;2.80;99.90;;;;;;4916644;29;20211;-78
2021/01/10 05:06:54;;;;;;;1999.90;999.90;;;2.90;99.90;;;;;;4915935;29;20213;-78
2021/01/10 05:09:23;;;;;;;1999.90;999.90;;;2.90;99.90;;;;;;4916038;29;20207;-78
2021/01/10 05:11:50;;;;;;;1999.90;999.90;;;2.90;99.90;;;;;;4915862;29;20747;-78
2021/01/10 05:14:17;;;;;;;1999.90;999.90;;;2.80;99.90;;;;;;4916027;29;20229;-77
2021/01/10 05:16:45;;;;;;;1999.90;999.90;;;2.70;99.90;;;;;;4923833;29;20444;-78
2021/01/10 05:19:17;;;;;;;1999.90;999.90;;;2.70;99.90;;;;;;4924455;29;20655;-78
2021/01/10 05:21:44;;;;;;;1999.90;999.90;;;2.70;99.90;;;;;;4924397;29;20624;-79
2021/01/10 05:24:17;;;;;;;1999.90;999.90;;;2.70;99.90;;;;;;4923983;29;20207;-80
2021/01/10 05:26:44;;;;;;;1999.90;999.90;;;2.60;99.90;;;;;;4924413;29;20195;-77
2021/01/10 05:29:12;;;;;;;1999.90;999.90;;;2.60;99.90;;;;;;4924319;29;20227;-79
2021/01/10 05:31:41;;;;;;;1999.90;999.90;;;2.60;99.90;;;;;;4923622;29;20230;-79
2021/01/10 05:34:09;;;;;;;1999.90;999.90;;;2.50;99.90;;;;;;4923815;29;20203;-79
2021/01/10 05:36:38;;;;;;;1999.90;999.90;;;2.30;99.90;;;;;;4923105;29;20214;-78
2021/01/10 05:39:16;;;;;;;1999.90;999.90;;;2.40;99.90;;;;;;4926440;29;20210;-79
2021/01/10 05:41:50;;;;;;;1999.90;999.90;;;2.50;99.90;;;;;;4923962;29;20215;-78
2021/01/10 05:44:17;;;;;;;1999.90;999.90;;;2.50;99.90;;;;;;4920580;29;20210;-80
2021/01/10 05:46:44;;;;;;;1999.90;999.90;;;2.40;99.90;;;;;;4924934;29;20210;-78
2021/01/10 05:49:19;;;;;;;1999.90;999.90;;;2.40;99.90;;;;;;4923957;29;20590;-79
2021/01/10 05:51:48;;;;;;;1999.90;999.90;;;2.40;99.90;;;;;;4923325;29;20695;-78
2021/01/10 05:54:35;;;;;;;1999.90;999.90;;;2.40;99.90;;;;;;4924194;29;20211;-79
2021/01/10 05:57:04;;;;;;;1999.90;999.90;;;2.40;99.90;;;;;;4925165;29;20210;-77
2021/01/10 05:59:33;;;;;;;1999.90;999.90;;;2.40;99.90;;;;;;4925276;29;20207;-78
2021/01/10 06:02:02;;;;;;;1999.90;999.90;;;2.40;99.90;;;;;;4925488;29;20230;-80
2021/01/10 06:04:30;;;;;;;1999.90;999.90;;;2.50;99.90;;;;;;4926210;29;20218;-80
2021/01/10 06:06:58;;;;;;;1999.90;999.90;;;2.60;99.90;;;;;;4923137;29;20238;-79
2021/01/10 06:09:26;;;;;;;1999.90;999.90;;;2.50;99.90;;;;;;4922903;29;20219;-79
2021/01/10 06:11:53;;;;;;;1999.90;999.90;;;2.60;99.90;;;;;;4923916;29;20940;-79
2021/01/10 06:14:23;;;;;;;1999.90;999.90;;;2.50;99.90;;;;;;4924312;29;20563;-79
2021/01/10 06:16:55;;;;;;;1999.90;999.90;;;2.50;99.90;;;;;;4923559;29;20290;-79
2021/01/10 06:19:28;;;;;;;1999.90;999.90;;;2.60;99.90;;;;;;4923289;29;20206;-80
2021/01/10 06:21:59;;;;;;;1999.90;999.90;;;2.50;99.90;;;;;;4924091;29;20229;-77
2021/01/10 06:24:32;;;;;;;1999.90;999.90;;;2.50;99.90;;;;;;4926122;29;20218;-79
2021/01/10 06:27:06;;;;;;;1999.90;999.90;;;2.60;99.90;;;;;;4926382;29;20250;-78
2021/01/10 06:29:39;;;;;;;1999.90;999.90;;;2.50;99.90;;;;;;4924499;29;20214;-79
2021/01/10 06:32:12;;;;;;;1999.90;999.90;;;2.50;99.90;;;;;;4924224;29;20227;-80
2021/01/10 06:34:41;;;;;;;1999.90;999.90;;;2.70;99.90;;;;;;4927069;29;20211;-78
2021/01/10 06:37:09;;;;;;;1999.90;999.90;;;2.60;99.90;;;;;;4925479;29;20214;-78
2021/01/10 06:39:46;;;;;;;1999.90;999.90;;;2.70;99.90;;;;;;4923853;29;20222;-79
2021/01/10 06:42:14;;;;;;;1999.90;999.90;;;2.50;99.90;;;;;;4924783;29;20227;-78
2021/01/10 06:44:44;;;;;;;1999.90;999.90;;;2.50;99.90;;;;;;4923378;29;20211;-78
2021/01/10 06:47:22;;;;;;;1999.90;999.90;;;2.60;99.90;;;;;;4923190;29;20207;-80
2021/01/10 06:49:50;;;;;;;1999.90;999.90;;;2.70;99.90;;;;;;4922801;29;20207;-78
2021/01/10 06:52:20;;;;;;;1999.90;999.90;;;2.60;99.90;;;;;;4922422;29;20246;-78
2021/01/10 06:54:49;;;;;;;1999.90;999.90;;;2.70;99.90;;;;;;4926208;29;20207;-78
2021/01/10 06:57:17;;;;;;;1999.90;999.90;;;2.70;99.90;;;;;;4922728;29;20306;-80
2021/01/10 07:00:02;;;;;;;1999.90;999.90;;;2.90;99.90;;;;;;4922668;29;20642;-78
2021/01/10 07:02:29;;;;;;;1999.90;999.90;;;2.90;99.90;;;;;;4924790;29;20700;-78
2021/01/10 07:04:58;;;;;;;1999.90;999.90;;;2.90;99.90;;;;;;4923063;29;22356;-79
2021/01/10 07:07:40;;;;;;;1999.90;999.90;;;2.80;99.90;;;;;;4922978;29;20625;-78
2021/01/10 07:10:12;;;;;;;1999.90;999.90;;;2.80;99.90;;;;;;4925995;29;20206;-78
2021/01/10 07:12:40;;;;;;;1999.90;999.90;;;2.80;99.90;;;;;;4926120;29;20599;-79
2021/01/10 07:15:26;;;;;;;1999.90;999.90;;;2.80;99.90;;;;;;4919978;29;20211;-78
2021/01/10 07:18:06;;;;;;;1999.90;999.90;;;2.90;99.90;;;;;;4917942;29;20202;-78
2021/01/10 07:20:35;;;;;;;1999.90;999.90;;;2.90;99.90;;;;;;4923162;29;20855;-80
2021/01/10 07:23:29;;;;;;;1999.90;999.90;;;2.80;99.90;;;;;;4925809;29;20210;-78
2021/01/10 07:25:57;;;;;;;1999.90;999.90;;;2.80;99.90;;;;;;4903523;29;20235;-79
2021/01/10 07:28:51;;;;;;;1999.90;999.90;;;2.70;99.90;;;;;;4906383;29;20226;-77
2021/01/10 07:31:20;;;;;;;1999.90;999.90;;;2.70;99.90;;;;;;4871284;29;20238;-78
2021/01/10 07:34:04;;;;;;;1999.90;999.90;;;2.80;99.90;;;;;;4904159;29;20691;-77
2021/01/10 07:36:45;;;;;;;1999.90;999.90;;;2.70;99.90;;;;;;4904128;29;20208;-78
2021/01/10 07:39:14;;;;;;;1999.90;999.90;;;2.60;99.90;;;;;;4903754;29;20221;-81
2021/01/10 07:41:41;;;;;;;1999.90;999.90;;;2.60;99.90;;;;;;4904150;29;20223;-80
2021/01/10 07:44:08;;;;;;;1999.90;999.90;;;2.60;99.90;;;;;;4916370;29;20199;-80
2021/01/10 07:46:51;;;;;;;1999.90;999.90;;;2.70;99.90;;;;;;4920772;29;20210;-78
2021/01/10 07:49:20;;;;;;;1999.90;999.90;;;2.70;99.90;;;;;;4920091;29;20595;-78
2021/01/10 07:51:47;;;;;;;1999.90;999.90;;;2.80;99.90;;;;;;4919874;29;20259;-78
2021/01/10 07:54:15;;;;;;;1999.90;999.90;;;2.90;99.90;;;;;;4921104;29;20270;-78
2021/01/10 07:56:42;;;;;;;1999.90;999.90;;;2.80;99.90;;;;;;4921465;29;20218;-77
2021/01/10 07:59:17;;;;;;;1999.90;999.90;;;2.80;99.90;;;;;;4921322;29;20207;-79
2021/01/10 08:01:48;;;;;;;1999.90;999.90;;;2.90;99.90;;;;;;4920925;29;20234;-79
2021/01/10 08:04:31;;;;;;;1999.90;999.90;;;2.90;99.90;;;;;;4921218;29;20207;-79
2021/01/10 08:07:00;;;;;;;1999.90;999.90;;;3.00;99.90;;;;;;4922849;29;20206;-79
2021/01/10 08:09:31;;;;;;;1999.90;999.90;;;2.90;99.90;;;;;;4921200;29;20245;-81
2021/01/10 08:11:59;;;;;;;1999.90;999.90;;;2.90;99.90;;;;;;4919186;29;20230;-78
2021/01/10 08:14:26;;;;;;;1999.90;999.90;;;2.80;99.90;;;;;;4921385;29;20214;-77
2021/01/10 08:16:54;;;;;;;1999.90;999.90;;;2.70;99.90;;;;;;4921358;29;20211;-83
2021/01/10 08:19:22;;;;;;;1999.90;999.90;;;2.70;99.90;;;;;;4920443;29;20656;-77
2021/01/10 08:21:49;;;;;;;1999.90;999.90;;;2.60;99.90;;;;;;4934719;29;20246;-77
2021/01/10 08:24:18;;;;;;;1999.90;999.90;;;2.60;99.90;;;;;;4937053;29;20202;-75
2021/01/10 08:26:46;;;;;;;1999.90;999.90;;;2.70;99.90;;;;;;4939746;29;20257;-76
2021/01/10 08:29:17;;;;;;;1999.90;999.90;;;2.80;99.90;;;;;;4928097;29;20205;-76
2021/01/10 08:31:50;;;;;;;1999.90;999.90;;;2.60;99.90;;;;;;4935067;29;20253;-76
2021/01/10 08:34:19;;;;;;;1999.90;999.90;;;2.70;99.90;;;;;;4932371;29;20230;-76
2021/01/10 08:36:47;;;;;;;1999.90;999.90;;;2.80;99.90;;;;;;4935199;29;20205;-76
2021/01/10 08:39:18;;;;;;;1999.90;999.90;;;2.80;99.90;;;;;;4939878;29;20198;-77
2021/01/10 08:41:47;;;;;;;1999.90;999.90;;;2.80;99.90;;;;;;4943923;29;20802;-77
2021/01/10 08:44:16;;;;;;;1999.90;999.90;;;3.10;99.90;;;;;;4944213;29;20222;-78
2021/01/10 08:46:45;;;;;;;1999.90;999.90;;;3.00;99.90;;;;;;4944469;29;20207;-78
2021/01/10 08:49:15;;;;;;;1999.90;999.90;;;3.20;99.90;;;;;;4932310;29;20281;-78
2021/01/10 08:51:43;;;;;;;1999.90;999.90;;;3.00;99.90;;;;;;4937647;29;20720;-78
2021/01/10 08:54:11;;;;;;;1999.90;999.90;;;3.00;99.90;;;;;;4934442;29;20249;-76
2021/01/10 08:56:39;;;;;;;1999.90;999.90;;;2.90;99.90;;;;;;4938945;29;20198;-78
2021/01/10 08:59:07;;;;;;;1999.90;999.90;;;3.00;99.90;;;;;;4933581;29;20202;-78
2021/01/10 09:01:35;;;;;;;1999.90;999.90;;;3.00;99.90;;;;;;4945284;29;20309;-78
2021/01/10 09:04:04;;;;;;;1999.90;999.90;;;3.10;99.90;;;;;;4944095;29;20225;-78
2021/01/10 09:07:00;;;;;;;1999.90;999.90;;;3.10;99.90;;;;;;4936822;29;20198;-76
2021/01/10 09:09:38;;;;;;;1999.90;999.90;;;2.90;99.90;;;;;;4931496;29;20206;-77
2021/01/10 09:12:11;;;;;;;1999.90;999.90;;;2.90;99.90;;;;;;4930894;29;20222;-78
2021/01/10 09:14:44;;;;;;;1999.90;999.90;;;2.80;99.90;;;;;;4935722;29;20230;-79
2021/01/10 09:17:14;;;;;;;1999.90;999.90;;;2.80;99.90;;;;;;4939849;29;20226;-78
2021/01/10 09:19:42;;;;;;;1999.90;999.90;;;2.80;99.90;;;;;;4941234;29;20265;-79
2021/01/10 09:22:10;;;;;;;1999.90;999.90;;;2.80;99.90;;;;;;4944580;29;20874;-78
2021/01/10 09:24:40;;;;;;;1999.90;999.90;;;2.80;99.90;;;;;;4940739;29;20615;-78
2021/01/10 09:27:12;;;;;;;1999.90;999.90;;;2.90;99.90;;;;;;4940502;29;20206;-80
2021/01/10 09:29:40;;;;;;;1999.90;999.90;;;2.90;99.90;;;;;;4936110;29;20209;-81
2021/01/10 09:32:08;;;;;;;1999.90;999.90;;;2.90;99.90;;;;;;4938603;29;20221;-78
2021/01/10 09:34:36;;;;;;;1999.90;999.90;;;3.00;99.90;;;;;;4939198;29;20297;-80
2021/01/10 09:37:05;;;;;;;1999.90;999.90;;;3.00;99.90;;;;;;4938882;29;20621;-79
2021/01/10 09:39:39;;;;;;;1999.90;999.90;;;3.00;99.90;;;;;;4937120;29;20679;-80
2021/01/10 09:42:07;;;;;;;1999.90;999.90;;;3.20;99.90;;;;;;4940728;29;20224;-78
2021/01/10 09:44:34;;;;;;;1999.90;999.90;;;3.20;99.90;;;;;;4941469;29;20201;-79
2021/01/10 09:47:04;;;;;;;1999.90;999.90;;;3.10;99.90;;;;;;4940733;29;20194;-81
2021/01/10 09:49:32;;;;;;;1999.90;999.90;;;3.20;99.90;;;;;;4940630;29;20202;-80
2021/01/10 09:52:00;;;;;;;1999.90;999.90;;;3.20;99.90;;;;;;4942085;29;20234;-79
2021/01/10 09:54:28;;;;;;;1999.90;999.90;;;3.20;99.90;;;;;;4940237;29;20198;-78
2021/01/10 09:56:56;;;;;;;1999.90;999.90;;;3.30;99.90;;;;;;4938600;29;20198;-79
2021/01/10 09:59:38;;;;;;;1999.90;999.90;;;3.50;99.90;;;;;;4938292;29;20245;-79
2021/01/10 10:02:25;;;;;;;1999.90;999.90;;;3.40;99.90;;;;;;4931579;29;20762;-80
2021/01/10 10:04:54;;;;;;;1999.90;999.90;;;3.50;99.90;;;;;;4936021;29;20289;-78
2021/01/10 10:07:32;;;;;;;1999.90;999.90;;;3.50;99.90;;;;;;4944170;29;20234;-77
2021/01/10 10:10:00;;;;;;;1999.90;999.90;;;3.60;99.90;;;;;;4941889;29;20631;-77
2021/01/10 10:12:27;;;;;;;1999.90;999.90;;;3.80;99.90;;;;;;4941778;29;20670;-77
2021/01/10 10:14:59;;;;;;;1999.90;999.90;;;3.60;99.90;;;;;;4940703;29;20209;-79
2021/01/10 10:17:32;;;;;;;1999.90;999.90;;;3.90;99.90;;;;;;4934034;29;20249;-79
2021/01/10 10:19:59;;;;;;;1999.90;999.90;;;3.50;99.90;;;;;;4938881;29;20694;-78
2021/01/10 10:22:29;;;;;;;1999.90;999.90;;;3.70;99.90;;;;;;4934796;29;20575;-80
2021/01/10 10:24:57;;;;;;;1999.90;999.90;;;3.80;99.90;;;;;;4937530;29;20194;-78
2021/01/10 10:27:25;;;;;;;1999.90;999.90;;;3.80;99.90;;;;;;4938381;29;20277;-77
2021/01/10 10:29:52;;;;;;;1999.90;999.90;;;3.90;99.90;;;;;;4943868;29;20194;-79
2021/01/10 10:32:20;;;;;;;1999.90;999.90;;;3.80;99.90;;;;;;4943739;29;20225;-78
2021/01/10 10:34:48;;;;;;;1999.90;999.90;;;3.90;99.90;;;;;;4942967;29;20208;-81
2021/01/10 10:37:18;;;;;;;1999.90;999.90;;;3.90;99.90;;;;;;4941260;29;20282;-79
2021/01/10 10:39:45;;;;;;;1999.90;999.90;;;3.70;99.90;;;;;;4944128;29;20651;-79
2021/01/10 10:42:13;;;;;;;1999.90;999.90;;;3.90;99.90;;;;;;4945138;29;20273;-78
2021/01/10 10:44:40;;;;;;;1999.90;999.90;;;3.90;99.90;;;;;;4944174;29;20202;-78
2021/01/10 10:47:11;;;;;;;1999.90;999.90;;;4.00;99.90;;;;;;4941956;29;20209;-77
2021/01/10 10:49:39;;;;;;;1999.90;999.90;;;3.90;99.90;;;;;;4944162;29;20237;-78
2021/01/10 10:52:10;;;;;;;1999.90;999.90;;;3.90;99.90;;;;;;4941857;29;20226;-77
2021/01/10 10:54:38;;;;;;;1999.90;999.90;;;4.10;99.90;;;;;;4936580;29;20257;-80
2021/01/10 10:57:07;;;;;;;1999.90;999.90;;;4.10;99.90;;;;;;4945391;29;20218;-79
2021/01/10 10:59:34;;;;;;;1999.90;999.90;;;4.10;99.90;;;;;;4944425;29;20202;-81
2021/01/10 11:02:03;;;;;;;1999.90;999.90;;;4.10;99.90;;;;;;4943444;29;20630;-81
2021/01/10 11:04:30;;;;;;;1999.90;999.90;;;4.20;99.90;;;;;;4942805;29;20556;-80
2021/01/10 11:06:58;;;;;;;1999.90;999.90;;;4.30;99.90;;;;;;4936956;29;20202;-78
2021/01/10 11:09:25;;;;;;;1999.90;999.90;;;4.40;99.90;;;;;;4938761;29;20243;-79
2021/01/10 11:11:53;;;;;;;1999.90;999.90;;;4.50;99.90;;;;;;4940719;29;20230;-77
2021/01/10 11:14:20;;;;;;;1999.90;999.90;;;4.20;99.90;;;;;;4942733;29;20213;-78
2021/01/10 11:16:49;;;;;;;1999.90;999.90;;;4.00;99.90;;;;;;4929239;29;20202;-77
2021/01/10 11:19:17;;;;;;;1999.90;999.90;;;4.00;99.90;;;;;;4936623;29;20297;-78
2021/01/10 11:21:45;;;;;;;1999.90;999.90;;;4.10;99.90;;;;;;4948452;23;20289;-75
2021/01/10 11:24:13;;;;;;;1999.90;999.90;;;3.90;99.90;;;;;;4934463;29;20194;-75
2021/01/10 11:26:43;;;;;;;1999.90;999.90;;;3.90;99.90;;;;;;4930879;29;20198;-73
2021/01/10 11:29:11;;;;;;;1999.90;999.90;;;4.10;99.90;;;;;;4935601;29;20252;-73
2021/01/10 11:31:39;;;;;;;1999.90;999.90;;;4.20;99.90;;;;;;4935347;29;20218;-73
2021/01/10 11:34:08;;;;;;;1999.90;999.90;;;3.90;99.90;;;;;;4935410;29;20198;-74
2021/01/10 11:36:35;;;;;;;1999.90;999.90;;;3.80;99.90;;;;;;4934840;29;20209;-74
2021/01/10 11:39:03;;;;;;;1999.90;999.90;;;3.70;99.90;;;;;;4935402;29;20202;-74
2021/01/10 11:41:30;;;;;;;1999.90;999.90;;;3.80;99.90;;;;;;4935146;29;20226;-75
2021/01/10 11:43:58;;;;;;;1999.90;999.90;;;3.70;99.90;;;;;;4935205;29;20202;-76
2021/01/10 11:46:25;;;;;;;1999.90;999.90;;;3.50;99.90;;;;;;4935072;29;20202;-75
2021/01/10 11:48:52;;;;;;;1999.90;999.90;;;3.60;99.90;;;;;;4935012;29;20201;-75
2021/01/10 11:51:19;;;;;;;1999.90;999.90;;;3.40;99.90;;;;;;4935222;29;20649;-75
2021/01/10 11:53:46;;;;;;;1999.90;999.90;;;3.50;99.90;;;;;;4935642;29;20266;-76
2021/01/10 11:56:13;;;;;;;1999.90;999.90;;;3.70;99.90;;;;;;4935620;29;20210;-76
2021/01/10 11:58:41;;;;;;;1999.90;999.90;;;3.80;99.90;;;;;;4935362;29;20206;-76
2021/01/10 12:01:09;;;;;;;1999.90;999.90;;;3.80;99.90;;;;;;4936561;29;20252;-78
2021/01/10 12:03:36;;;;;;;1999.90;999.90;;;3.90;99.90;;;;;;4936911;29;20257;-78
2021/01/10 12:06:04;;;;;;;1999.90;999.90;;;3.90;99.90;;;;;;4935843;29;20198;-78
2021/01/10 12:08:31;;;;;;;1999.90;999.90;;;3.80;99.90;;;;;;4935472;29;20213;-77
2021/01/10 12:10:59;;;;;;;1999.90;999.90;;;3.80;99.90;;;;;;4935153;29;20218;-77
2021/01/10 12:13:26;;;;;;;1999.90;999.90;;;3.70;99.90;;;;;;4927730;29;20229;-78
2021/01/10 12:15:55;;;;;;;1999.90;999.90;;;3.70;99.90;;;;;;4934068;29;20238;-77
2021/01/10 12:18:24;;;;;;;1999.90;999.90;;;3.80;99.90;;;;;;4917768;29;20217;-75
2021/01/10 12:20:51;;;;;;;1999.90;999.90;;;3.90;99.90;;;;;;4913457;29;20642;-76
2021/01/10 12:23:18;;;;;;;1999.90;999.90;;;4.00;99.90;;;;;;4913997;29;20884;-77
2021/01/10 12:25:45;;;;;;;1999.90;999.90;;;4.00;99.90;;;;;;4912889;29;20206;-77
2021/01/10 12:28:12;;;;;;;1999.90;999.90;;;4.00;99.90;;;;;;4913316;29;20254;-77
2021/01/10 12:30:39;;;;;;;1999.90;999.90;;;4.10;99.90;;;;;;4916211;29;20301;-76
2021/01/10 12:33:06;;;;;;;1999.90;999.90;;;4.10;99.90;;;;;;4915538;29;20234;-78
2021/01/10 12:35:34;;;;;;;1999.90;999.90;;;4.00;99.90;;;;;;4916515;29;20207;-76
2021/01/10 12:38:01;;;;;;;1999.90;999.90;;;4.00;99.90;;;;;;4916737;29;20266;-77
2021/01/10 12:40:28;;;;;;;1999.90;999.90;;;4.00;99.90;;;;;;4917540;29;20222;-78
2021/01/10 12:42:56;;;;;;;1999.90;999.90;;;3.90;99.90;;;;;;4916590;29;20210;-78
2021/01/10 12:45:22;;;;;;;1999.90;999.90;;;3.90;99.90;;;;;;4917903;29;20210;-77
2021/01/10 12:47:49;;;;;;;1999.90;999.90;;;4.00;99.90;;;;;;4922232;29;20210;-77
2021/01/10 12:50:16;;;;;;;1999.90;999.90;;;4.20;99.90;;;;;;4932583;29;20230;-79
2021/01/10 12:52:44;;;;;;;1999.90;999.90;;;4.20;99.90;;;;;;4937593;29;20753;-78
2021/01/10 12:55:12;;;;;;;1999.90;999.90;;;4.20;99.90;;;;;;4937224;29;20213;-78
2021/01/10 12:57:38;;;;;;;1999.90;999.90;;;4.30;99.90;;;;;;4936773;29;20198;-78
2021/01/10 13:00:08;;;;;;;1999.90;999.90;;;4.30;99.90;;;;;;4936998;29;20222;-78
2021/01/10 13:02:35;;;;;;;1999.90;999.90;;;4.20;99.90;;;;;;4937570;29;20197;-78
2021/01/10 13:05:04;;;;;;;1999.90;999.90;;;4.10;99.90;;;;;;4919757;29;20217;-78
2021/01/10 13:07:32;;;;;;;1999.90;999.90;;;3.90;99.90;;;;;;4917532;29;20210;-78
2021/01/10 13:09:59;;;;;;;1999.90;999.90;;;3.70;99.90;;;;;;4917872;29;20589;-78
2021/01/10 13:12:26;;;;;;;1999.90;999.90;;;3.70;99.90;;;;;;4918455;29;20231;-78
2021/01/10 13:14:53;;;;;;;1999.90;999.90;;;3.70;99.90;;;;;;4917914;29;20199;-78
2021/01/10 13:17:20;;;;;;;1999.90;999.90;;;3.70;99.90;;;;;;4920141;29;20214;-78
2021/01/10 13:19:47;;;;;;;1999.90;999.90;;;3.70;99.90;;;;;;4937420;29;20206;-78
2021/01/10 13:22:14;;;;;;;1999.90;999.90;;;3.70;99.90;;;;;;4945214;29;20194;-78
2021/01/10 13:24:41;;;;;;;1999.90;999.90;;;3.90;99.90;;;;;;4925491;29;20203;-77
2021/01/10 13:27:08;;;;;;;1999.90;999.90;;;4.00;99.90;;;;;;4921249;29;20239;-77
2021/01/10 13:29:35;;;;;;;1999.90;999.90;;;4.10;99.90;;;;;;4916970;29;20191;-77
2021/01/10 13:32:04;;;;;;;1999.90;999.90;;;4.10;99.90;;;;;;4931179;29;20230;-76
2021/01/10 13:34:31;;;;;;;1999.90;999.90;;;4.00;99.90;;;;;;4936064;29;20206;-77
2021/01/10 13:36:59;;;;;;;1999.90;999.90;;;4.10;99.90;;;;;;4936276;29;20208;-78
2021/01/10 13:39:27;;;;;;;1999.90;999.90;;;4.10;99.90;;;;;;4935829;29;20611;-76
2021/01/10 13:41:55;;;;;;;1999.90;999.90;;;4.10;99.90;;;;;;4938752;29;20273;-78
2021/01/10 13:44:24;;;;;;;1999.90;999.90;;;4.00;99.90;;;;;;4940554;29;20210;-78
2021/01/10 13:46:52;;;;;;;1999.90;999.90;;;4.00;99.90;;;;;;4937525;29;20206;-78
2021/01/10 13:49:19;;;;;;;1999.90;999.90;;;4.30;99.90;;;;;;4937321;29;20206;-75
2021/01/10 13:51:46;;;;;;;1999.90;999.90;;;4.20;99.90;;;;;;4934298;29;20707;-74
2021/01/10 13:54:13;;;;;;;1999.90;999.90;;;4.20;99.90;;;;;;4936598;29;20210;-79
2021/01/10 13:56:41;;;;;;;1999.90;999.90;;;4.10;99.90;;;;;;4939959;29;20210;-77
2021/01/10 13:59:09;;;;;;;1999.90;999.90;;;4.00;99.90;;;;;;4941156;29;20202;-78
2021/01/10 14:01:38;;;;;;;1999.90;999.90;;;3.70;99.90;;;;;;4929707;29;20222;-77
2021/01/10 14:04:06;;;;;;;1999.90;999.90;;;3.60;99.90;;;;;;4919871;29;20225;-77
2021/01/10 14:06:34;;;;;;;1999.90;999.90;;;3.50;99.90;;;;;;4927373;29;20203;-78
2021/01/10 14:09:03;;;;;;;1999.90;999.90;;;3.50;99.90;;;;;;4918620;29;20585;-77
2021/01/10 14:11:31;;;;;;;1999.90;999.90;;;3.30;99.90;;;;;;4902272;29;20622;-75
2021/01/10 14:14:00;;;;;;;1999.90;999.90;;;3.40;99.90;;;;;;4903980;29;20723;-75
2021/01/10 14:16:28;;;;;;;1999.90;999.90;;;3.50;99.90;;;;;;4911689;29;20207;-78
2021/01/10 14:18:57;;;;;;;1999.90;999.90;;;3.40;99.90;;;;;;4912005;29;20215;-81
2021/01/10 14:21:26;;;;;;;1999.90;999.90;;;3.30;99.90;;;;;;4913176;29;20260;-80
2021/01/10 14:23:53;;;;;;;1999.90;999.90;;;3.40;99.90;;;;;;4915983;29;20231;-77
2021/01/10 14:26:31;;;;;;;1999.90;999.90;;;3.40;99.90;;;;;;4914910;29;20216;-79
2021/01/10 14:28:59;;;;;;;1999.90;999.90;;;3.30;99.90;;;;;;4913221;29;20243;-78
2021/01/10 14:31:26;;;;;;;1999.90;999.90;;;3.30;99.90;;;;;;4906833;29;20258;-79
2021/01/10 14:33:54;;;;;;;1999.90;999.90;;;3.30;99.90;;;;;;4925669;29;20254;-78
2021/01/10 14:36:21;;;;;;;1999.90;999.90;;;3.30;99.90;;;;;;4927961;29;20254;-79
2021/01/10 14:38:48;;;;;;;1999.90;999.90;;;3.50;99.90;;;;;;4920497;29;20247;-76
2021/01/10 14:41:19;;;;;;;1999.90;999.90;;;3.50;99.90;;;;;;4935669;29;20221;-77
2021/01/10 14:43:46;;;;;;;1999.90;999.90;;;3.60;99.90;;;;;;4902936;29;20236;-76
2021/01/10 14:46:16;;;;;;;1999.90;999.90;;;3.60;99.90;;;;;;4935483;29;20202;-78
2021/01/10 14:48:43;;;;;;;1999.90;999.90;;;3.60;99.90;;;;;;4954080;29;20209;-78
2021/01/10 14:51:12;;;;;;;1999.90;999.90;;;3.70;99.90;;;;;;4952992;29;20658;-78
2021/01/10 14:53:40;;;;;;;1999.90;999.90;;;3.80;99.90;;;;;;4951695;29;20647;-77
2021/01/10 14:56:10;;;;;;;1999.90;999.90;;;3.80;99.90;;;;;;4946360;29;20241;-77
2021/01/10 14:58:37;;;;;;;1999.90;999.90;;;3.70;99.90;;;;;;4938650;29;20281;-78
2021/01/10 15:01:04;;;;;;;1999.90;999.90;;;3.70;99.90;;;;;;4938090;29;20218;-76
2021/01/10 15:03:31;;;;;;;1999.90;999.90;;;3.70;99.90;;;;;;4941404;29;20297;-76
2021/01/10 15:05:58;;;;;;;1999.90;999.90;;;3.60;99.90;;;;;;4941851;29;20205;-76
2021/01/10 15:08:25;;;;;;;1999.90;999.90;;;3.70;99.90;;;;;;4943695;29;20210;-77
2021/01/10 15:10:52;;;;;;;1999.90;999.90;;;3.70;99.90;;;;;;4938678;29;20290;-76
2021/01/10 15:13:19;;;;;;;1999.90;999.90;;;3.70;99.90;;;;;;4941815;29;20225;-77
2021/01/10 15:15:46;;;;;;;1999.90;999.90;;;3.60;99.90;;;;;;4944948;29;20242;-73
2021/01/10 15:18:13;;;;;;;1999.90;999.90;;;3.60;99.90;;;;;;4950092;29;20202;-78
2021/01/10 15:20:41;;;;;;;1999.90;999.90;;;3.50;99.90;;;;;;4952246;29;20258;-77
2021/01/10 15:23:08;;;;;;;1999.90;999.90;;;3.40;99.90;;;;;;4943822;29;20213;-77
2021/01/10 15:25:35;;;;;;;1999.90;999.90;;;3.30;99.90;;;;;;4948323;29;20206;-77
2021/01/10 15:28:04;;;;;;;1999.90;999.90;;;3.30;99.90;;;;;;4945959;29;20210;-77
2021/01/10 15:30:31;;;;;;;1999.90;999.90;;;3.30;99.90;;;;;;4949113;29;20226;-77
2021/01/10 15:32:58;;;;;;;1999.90;999.90;;;3.20;99.90;;;;;;4947141;29;20253;-77
2021/01/10 15:35:24;;;;;;;1999.90;999.90;;;3.10;99.90;;;;;;4951153;29;20202;-78
2021/01/10 15:37:51;;;;;;;1999.90;999.90;;;3.00;99.90;;;;;;4945941;29;20210;-77
2021/01/10 15:40:18;;;;;;;1999.90;999.90;;;2.90;99.90;;;;;;4947248;29;20230;-77
2021/01/10 15:42:45;;;;;;;1999.90;999.90;;;2.70;99.90;;;;;;4942199;29;20198;-77
2021/01/10 15:45:14;;;;;;;1999.90;999.90;;;2.70;99.90;;;;;;4941819;29;20621;-77
2021/01/10 15:47:41;;;;;;;1999.90;999.90;;;2.80;99.90;;;;;;4940939;29;20210;-76
2021/01/10 15:50:12;;;;;;;1999.90;999.90;;;2.80;99.90;;;;;;4938153;29;20257;-78
2021/01/10 15:52:39;;;;;;;1999.90;999.90;;;2.70;99.90;;;;;;4939062;29;20233;-77
2021/01/10 15:55:07;;;;;;;1999.90;999.90;;;2.60;99.90;;;;;;4940496;29;20206;-77
2021/01/10 15:57:34;;;;;;;1999.90;999.90;;;2.50;99.90;;;;;;4942123;29;20209;-78
2021/01/10 16:00:03;;;;;;;1999.90;999.90;;;2.50;99.90;;;;;;4938652;29;20202;-77
2021/01/10 16:02:31;;;;;;;1999.90;999.90;;;2.30;99.90;;;;;;4944147;29;20201;-78
2021/01/10 16:04:58;;;;;;;1999.90;999.90;;;2.40;99.90;;;;;;4941708;29;20627;-78
2021/01/10 16:07:25;;;;;;;1999.90;999.90;;;2.40;99.90;;;;;;4939204;29;20213;-75
2021/01/10 16:09:51;;;;;;;1999.90;999.90;;;2.40;99.90;;;;;;4936707;29;20206;-73
2021/01/10 16:12:18;;;;;;;1999.90;999.90;;;2.40;99.90;;;;;;4937988;29;20237;-77
2021/01/10 16:14:47;;;;;;;1999.90;999.90;;;2.40;99.90;;;;;;4938717;29;20210;-77
2021/01/10 16:17:14;;;;;;;1999.90;999.90;;;2.40;99.90;;;;;;4935578;29;20273;-73
2021/01/10 16:19:42;;;;;;;1999.90;999.90;;;2.30;99.90;;;;;;4936802;29;20206;-77
2021/01/10 16:22:09;;;;;;;1999.90;999.90;;;2.30;99.90;;;;;;4935246;29;20210;-77
2021/01/10 16:24:36;;;;;;;1999.90;999.90;;;2.30;99.90;;;;;;4938824;29;20202;-78
2021/01/10 16:27:05;;;;;;;1999.90;999.90;;;2.20;99.90;;;;;;4935776;29;20202;-78
2021/01/10 16:29:32;;;;;;;1999.90;999.90;;;2.20;99.90;;;;;;4939552;29;20736;-77
2021/01/10 16:32:09;;;;;;;1999.90;999.90;;;2.10;99.90;;;;;;4938258;29;20652;-77
2021/01/10 16:34:36;;;;;;;1999.90;999.90;;;1.80;99.90;;;;;;4937409;29;20305;-77
2021/01/10 16:37:04;;;;;;;1999.90;999.90;;;1.80;99.90;;;;;;4936113;29;20214;-78
2021/01/10 16:39:31;;;;;;;1999.90;999.90;;;1.70;99.90;;;;;;4935316;29;20217;-73
2021/01/10 16:41:58;;;;;;;1999.90;999.90;;;1.80;99.90;;;;;;4935224;29;20226;-75
2021/01/10 16:44:25;;;;;;;1999.90;999.90;;;1.80;99.90;;;;;;4935531;29;20234;-75
2021/01/10 16:46:52;;;;;;;1999.90;999.90;;;1.70;99.90;;;;;;4935194;29;20289;-75
2021/01/10 16:49:19;;;;;;;1999.90;999.90;;;1.60;99.90;;;;;;4934414;29;20671;-77
2021/01/10 16:51:47;;;;;;;1999.90;999.90;;;1.80;99.90;;;;;;4936053;29;20784;-75
2021/01/10 16:54:19;;;;;;;1999.90;999.90;;;1.60;99.90;;;;;;4937221;29;20218;-74
2021/01/10 16:56:47;;;;;;;1999.90;999.90;;;1.40;99.90;;;;;;4935017;29;20206;-77
2021/01/10 16:59:15;;;;;;;1999.90;999.90;;;1.60;99.90;;;;;;4937534;29;20289;-78
2021/01/10 17:01:44;;;;;;;1999.90;999.90;;;1.30;99.90;;;;;;4938034;29;20250;-76
2021/01/10 17:04:11;;;;;;;1999.90;999.90;;;1.20;99.90;;;;;;4933893;29;20199;-74
2021/01/10 17:06:39;;;;;;;1999.90;999.90;;;1.20;99.90;;;;;;4935593;29;20629;-74
2021/01/10 17:09:09;;;;;;;1999.90;999.90;;;1.10;99.90;;;;;;4935130;29;20209;-74
2021/01/10 17:11:38;;;;;;;1999.90;999.90;;;1.10;99.90;;;;;;4933831;29;20228;-75
2021/01/10 17:14:05;;;;;;;1999.90;999.90;;;1.00;99.90;;;;;;4933141;29;20271;-75
2021/01/10 17:16:32;;;;;;;1999.90;999.90;;;0.90;99.90;;;;;;4936144;29;20233;-77
2021/01/10 17:19:00;;;;;;;1999.90;999.90;;;0.80;99.90;;;;;;4935658;29;20206;-76